sensor_id;sensor_type;location;lat;lon;timestamp;P1;durP1;ratioP1;P2;durP2;ratioP2
66118;SDS011;52912;48.564;9.302;2022-12-07T00:00:31;9.85;;;6.05;;
66118;SDS011;52912;48.564;9.302;2022-12-07T00:02:56;9.85;;;5.60;;
66118;SDS011;52912;48.564;9.302;2022-12-07T00:05:22;10.25;;;5.93;;
66118;SDS011;52912;48.564;9.302;2022-12-07T00:07:47;9.43;;;5.75;;
66118;SDS011;52912;48.564;9.302;2022-12-07T00:10:15;10.40;;;6.18;;
66118;SDS011;52912;48.564;9.302;2022-12-07T00:12:40;9.75;;;6.55;;
66118;SDS011;52912;48.564;9.302;2022-12-07T00:15:06;8.90;;;5.97;;
66118;SDS011;52912;48.564;9.302;2022-12-07T00:17:32;11.23;;;5.95;;
66118;SDS011;52912;48.564;9.302;2022-12-07T00:19:58;9.60;;;5.65;;
66118;SDS011;52912;48.564;9.302;2022-12-07T00:22:23;10.32;;;6.45;;
66118;SDS011;52912;48.564;9.302;2022-12-07T00:24:48;10.50;;;6.15;;
66118;SDS011;52912;48.564;9.302;2022-12-07T00:27:15;9.35;;;6.00;;
66118;SDS011;52912;48.564;9.302;2022-12-07T00:29:41;11.90;;;6.57;;
66118;SDS011;52912;48.564;9.302;2022-12-07T00:32:06;9.48;;;6.13;;
66118;SDS011;52912;48.564;9.302;2022-12-07T00:34:32;9.75;;;5.90;;
66118;SDS011;52912;48.564;9.302;2022-12-07T00:36:57;12.23;;;5.88;;
66118;SDS011;52912;48.564;9.302;2022-12-07T00:39:22;11.13;;;6.32;;
66118;SDS011;52912;48.564;9.302;2022-12-07T00:41:48;11.55;;;6.75;;
66118;SDS011;52912;48.564;9.302;2022-12-07T00:44:15;11.90;;;5.97;;
66118;SDS011;52912;48.564;9.302;2022-12-07T00:46:40;11.75;;;6.45;;
66118;SDS011;52912;48.564;9.302;2022-12-07T00:49:05;10.73;;;6.15;;
66118;SDS011;52912;48.564;9.302;2022-12-07T00:51:31;9.68;;;6.35;;
66118;SDS011;52912;48.564;9.302;2022-12-07T00:53:56;9.70;;;6.40;;
66118;SDS011;52912;48.564;9.302;2022-12-07T00:56:23;11.63;;;6.10;;
66118;SDS011;52912;48.564;9.302;2022-12-07T00:58:50;9.75;;;5.72;;
66118;SDS011;52912;48.564;9.302;2022-12-07T01:01:18;11.60;;;6.15;;
66118;SDS011;52912;48.564;9.302;2022-12-07T01:03:44;13.65;;;5.90;;
66118;SDS011;52912;48.564;9.302;2022-12-07T01:06:09;10.43;;;6.15;;
66118;SDS011;52912;48.564;9.302;2022-12-07T01:08:39;9.27;;;5.80;;
66118;SDS011;52912;48.564;9.302;2022-12-07T01:11:06;14.73;;;6.40;;
66118;SDS011;52912;48.564;9.302;2022-12-07T01:13:33;10.80;;;6.47;;
66118;SDS011;52912;48.564;9.302;2022-12-07T01:15:59;9.88;;;6.05;;
66118;SDS011;52912;48.564;9.302;2022-12-07T01:18:27;10.35;;;5.78;;
66118;SDS011;52912;48.564;9.302;2022-12-07T01:20:58;8.55;;;5.70;;
66118;SDS011;52912;48.564;9.302;2022-12-07T01:23:24;10.43;;;5.90;;
66118;SDS011;52912;48.564;9.302;2022-12-07T01:25:53;12.30;;;5.80;;
66118;SDS011;52912;48.564;9.302;2022-12-07T01:28:19;8.82;;;5.22;;
66118;SDS011;52912;48.564;9.302;2022-12-07T01:30:45;10.65;;;5.75;;
66118;SDS011;52912;48.564;9.302;2022-12-07T01:33:19;11.35;;;5.65;;
66118;SDS011;52912;48.564;9.302;2022-12-07T01:35:45;8.10;;;5.38;;
66118;SDS011;52912;48.564;9.302;2022-12-07T01:38:11;10.55;;;5.80;;
66118;SDS011;52912;48.564;9.302;2022-12-07T01:40:36;10.45;;;5.57;;
66118;SDS011;52912;48.564;9.302;2022-12-07T01:43:02;10.05;;;5.50;;
66118;SDS011;52912;48.564;9.302;2022-12-07T01:45:37;9.20;;;5.55;;
66118;SDS011;52912;48.564;9.302;2022-12-07T01:48:05;7.78;;;5.07;;
66118;SDS011;52912;48.564;9.302;2022-12-07T01:50:33;8.40;;;5.60;;
66118;SDS011;52912;48.564;9.302;2022-12-07T01:53:01;11.80;;;5.72;;
66118;SDS011;52912;48.564;9.302;2022-12-07T01:55:29;9.00;;;5.15;;
66118;SDS011;52912;48.564;9.302;2022-12-07T01:57:55;9.55;;;5.93;;
66118;SDS011;52912;48.564;9.302;2022-12-07T02:00:21;8.40;;;5.28;;
66118;SDS011;52912;48.564;9.302;2022-12-07T02:02:48;8.57;;;5.50;;
66118;SDS011;52912;48.564;9.302;2022-12-07T02:05:17;8.05;;;5.25;;
66118;SDS011;52912;48.564;9.302;2022-12-07T02:07:43;8.75;;;5.68;;
66118;SDS011;52912;48.564;9.302;2022-12-07T02:10:14;10.20;;;5.40;;
66118;SDS011;52912;48.564;9.302;2022-12-07T02:12:40;11.83;;;5.87;;
66118;SDS011;52912;48.564;9.302;2022-12-07T02:15:06;7.97;;;5.05;;
66118;SDS011;52912;48.564;9.302;2022-12-07T02:17:34;9.88;;;5.53;;
66118;SDS011;52912;48.564;9.302;2022-12-07T02:20:09;8.95;;;4.88;;
66118;SDS011;52912;48.564;9.302;2022-12-07T02:22:50;8.45;;;5.47;;
66118;SDS011;52912;48.564;9.302;2022-12-07T02:25:38;9.13;;;5.65;;
66118;SDS011;52912;48.564;9.302;2022-12-07T02:28:19;7.97;;;5.05;;
66118;SDS011;52912;48.564;9.302;2022-12-07T02:30:54;10.15;;;4.80;;
66118;SDS011;52912;48.564;9.302;2022-12-07T02:33:24;7.93;;;5.22;;
66118;SDS011;52912;48.564;9.302;2022-12-07T02:35:54;7.90;;;5.35;;
66118;SDS011;52912;48.564;9.302;2022-12-07T02:38:25;8.82;;;5.10;;
66118;SDS011;52912;48.564;9.302;2022-12-07T02:40:54;8.27;;;5.32;;
66118;SDS011;52912;48.564;9.302;2022-12-07T02:43:23;10.05;;;6.60;;
66118;SDS011;52912;48.564;9.302;2022-12-07T02:45:50;12.50;;;6.32;;
66118;SDS011;52912;48.564;9.302;2022-12-07T02:48:19;11.65;;;6.60;;
66118;SDS011;52912;48.564;9.302;2022-12-07T02:50:47;8.95;;;5.88;;
66118;SDS011;52912;48.564;9.302;2022-12-07T02:53:29;10.57;;;6.85;;
66118;SDS011;52912;48.564;9.302;2022-12-07T02:55:59;10.43;;;6.63;;
66118;SDS011;52912;48.564;9.302;2022-12-07T02:58:32;9.77;;;6.68;;
66118;SDS011;52912;48.564;9.302;2022-12-07T03:01:09;11.63;;;6.78;;
66118;SDS011;52912;48.564;9.302;2022-12-07T03:03:41;11.43;;;7.10;;
66118;SDS011;52912;48.564;9.302;2022-12-07T03:06:20;12.80;;;7.23;;
66118;SDS011;52912;48.564;9.302;2022-12-07T03:08:51;10.20;;;6.63;;
66118;SDS011;52912;48.564;9.302;2022-12-07T03:11:25;11.98;;;7.25;;
66118;SDS011;52912;48.564;9.302;2022-12-07T03:13:55;12.27;;;7.60;;
66118;SDS011;52912;48.564;9.302;2022-12-07T03:16:26;12.57;;;7.43;;
66118;SDS011;52912;48.564;9.302;2022-12-07T03:18:57;12.00;;;7.80;;
66118;SDS011;52912;48.564;9.302;2022-12-07T03:21:25;10.95;;;7.28;;
66118;SDS011;52912;48.564;9.302;2022-12-07T03:23:54;13.45;;;7.78;;
66118;SDS011;52912;48.564;9.302;2022-12-07T03:26:22;13.15;;;7.68;;
66118;SDS011;52912;48.564;9.302;2022-12-07T03:28:55;12.65;;;8.00;;
66118;SDS011;52912;48.564;9.302;2022-12-07T03:31:25;12.77;;;8.02;;
66118;SDS011;52912;48.564;9.302;2022-12-07T03:33:57;14.38;;;8.32;;
66118;SDS011;52912;48.564;9.302;2022-12-07T03:36:28;11.82;;;7.90;;
66118;SDS011;52912;48.564;9.302;2022-12-07T03:39:00;12.63;;;7.97;;
66118;SDS011;52912;48.564;9.302;2022-12-07T03:41:29;12.15;;;8.00;;
66118;SDS011;52912;48.564;9.302;2022-12-07T03:43:58;10.60;;;7.00;;
66118;SDS011;52912;48.564;9.302;2022-12-07T03:46:27;12.98;;;7.70;;
66118;SDS011;52912;48.564;9.302;2022-12-07T03:49:04;11.27;;;7.75;;
66118;SDS011;52912;48.564;9.302;2022-12-07T03:51:34;13.13;;;7.40;;
66118;SDS011;52912;48.564;9.302;2022-12-07T03:54:06;11.10;;;6.80;;
66118;SDS011;52912;48.564;9.302;2022-12-07T03:56:36;12.27;;;7.35;;
66118;SDS011;52912;48.564;9.302;2022-12-07T03:59:02;12.05;;;8.27;;
66118;SDS011;52912;48.564;9.302;2022-12-07T04:01:27;13.82;;;8.48;;
66118;SDS011;52912;48.564;9.302;2022-12-07T04:03:53;12.13;;;7.57;;
66118;SDS011;52912;48.564;9.302;2022-12-07T04:06:20;13.30;;;7.93;;
66118;SDS011;52912;48.564;9.302;2022-12-07T04:08:45;12.30;;;7.78;;
66118;SDS011;52912;48.564;9.302;2022-12-07T04:11:10;12.30;;;7.85;;
66118;SDS011;52912;48.564;9.302;2022-12-07T04:13:36;14.25;;;8.43;;
66118;SDS011;52912;48.564;9.302;2022-12-07T04:16:01;13.18;;;7.60;;
66118;SDS011;52912;48.564;9.302;2022-12-07T04:18:27;14.05;;;8.35;;
66118;SDS011;52912;48.564;9.302;2022-12-07T04:20:52;12.50;;;7.57;;
66118;SDS011;52912;48.564;9.302;2022-12-07T04:23:19;12.35;;;8.10;;
66118;SDS011;52912;48.564;9.302;2022-12-07T04:25:47;13.32;;;7.75;;
66118;SDS011;52912;48.564;9.302;2022-12-07T04:28:13;12.65;;;7.60;;
66118;SDS011;52912;48.564;9.302;2022-12-07T04:30:38;12.73;;;7.65;;
66118;SDS011;52912;48.564;9.302;2022-12-07T04:33:03;13.65;;;8.23;;
66118;SDS011;52912;48.564;9.302;2022-12-07T04:35:29;13.85;;;7.65;;
66118;SDS011;52912;48.564;9.302;2022-12-07T04:37:54;11.55;;;7.53;;
66118;SDS011;52912;48.564;9.302;2022-12-07T04:40:21;14.38;;;8.02;;
66118;SDS011;52912;48.564;9.302;2022-12-07T04:42:47;14.70;;;8.23;;
66118;SDS011;52912;48.564;9.302;2022-12-07T04:45:12;12.50;;;8.20;;
66118;SDS011;52912;48.564;9.302;2022-12-07T04:47:37;13.75;;;7.85;;
66118;SDS011;52912;48.564;9.302;2022-12-07T04:50:03;14.10;;;8.48;;
66118;SDS011;52912;48.564;9.302;2022-12-07T04:52:30;13.88;;;7.90;;
66118;SDS011;52912;48.564;9.302;2022-12-07T04:54:55;15.05;;;8.07;;
66118;SDS011;52912;48.564;9.302;2022-12-07T04:57:22;13.15;;;7.53;;
66118;SDS011;52912;48.564;9.302;2022-12-07T04:59:47;13.93;;;8.55;;
66118;SDS011;52912;48.564;9.302;2022-12-07T05:02:13;12.95;;;7.72;;
66118;SDS011;52912;48.564;9.302;2022-12-07T05:04:38;12.68;;;7.43;;
66118;SDS011;52912;48.564;9.302;2022-12-07T05:07:04;13.45;;;7.65;;
66118;SDS011;52912;48.564;9.302;2022-12-07T05:09:29;9.98;;;6.40;;
66118;SDS011;52912;48.564;9.302;2022-12-07T05:11:55;13.35;;;7.25;;
66118;SDS011;52912;48.564;9.302;2022-12-07T05:14:21;12.27;;;6.43;;
66118;SDS011;52912;48.564;9.302;2022-12-07T05:16:47;10.38;;;6.28;;
66118;SDS011;52912;48.564;9.302;2022-12-07T05:19:15;12.30;;;7.13;;
66118;SDS011;52912;48.564;9.302;2022-12-07T05:21:41;11.45;;;6.68;;
66118;SDS011;52912;48.564;9.302;2022-12-07T05:24:07;10.52;;;6.20;;
66118;SDS011;52912;48.564;9.302;2022-12-07T05:26:37;14.75;;;6.78;;
66118;SDS011;52912;48.564;9.302;2022-12-07T05:29:03;11.50;;;6.60;;
66118;SDS011;52912;48.564;9.302;2022-12-07T05:31:30;13.10;;;6.60;;
66118;SDS011;52912;48.564;9.302;2022-12-07T05:33:56;11.70;;;6.68;;
66118;SDS011;52912;48.564;9.302;2022-12-07T05:36:21;11.48;;;7.15;;
66118;SDS011;52912;48.564;9.302;2022-12-07T05:38:47;12.40;;;6.63;;
66118;SDS011;52912;48.564;9.302;2022-12-07T05:41:14;11.38;;;6.72;;
66118;SDS011;52912;48.564;9.302;2022-12-07T05:43:41;10.52;;;6.78;;
66118;SDS011;52912;48.564;9.302;2022-12-07T05:46:06;10.07;;;6.80;;
66118;SDS011;52912;48.564;9.302;2022-12-07T05:48:33;13.60;;;7.00;;
66118;SDS011;52912;48.564;9.302;2022-12-07T05:50:58;11.15;;;6.55;;
66118;SDS011;52912;48.564;9.302;2022-12-07T05:53:24;14.68;;;7.03;;
66118;SDS011;52912;48.564;9.302;2022-12-07T05:55:49;12.73;;;7.07;;
66118;SDS011;52912;48.564;9.302;2022-12-07T05:58:17;13.38;;;6.85;;
66118;SDS011;52912;48.564;9.302;2022-12-07T06:00:43;11.85;;;6.25;;
66118;SDS011;52912;48.564;9.302;2022-12-07T06:03:08;13.20;;;6.53;;
66118;SDS011;52912;48.564;9.302;2022-12-07T06:05:35;9.40;;;5.40;;
66118;SDS011;52912;48.564;9.302;2022-12-07T06:08:01;11.77;;;5.60;;
66118;SDS011;52912;48.564;9.302;2022-12-07T06:10:27;8.93;;;5.35;;
66118;SDS011;52912;48.564;9.302;2022-12-07T06:12:52;8.50;;;5.47;;
66118;SDS011;52912;48.564;9.302;2022-12-07T06:15:17;9.50;;;5.63;;
66118;SDS011;52912;48.564;9.302;2022-12-07T06:17:43;10.10;;;5.50;;
66118;SDS011;52912;48.564;9.302;2022-12-07T06:20:08;10.23;;;6.45;;
66118;SDS011;52912;48.564;9.302;2022-12-07T06:22:35;13.68;;;7.40;;
66118;SDS011;52912;48.564;9.302;2022-12-07T06:25:01;8.85;;;5.95;;
66118;SDS011;52912;48.564;9.302;2022-12-07T06:27:26;17.48;;;6.35;;
66118;SDS011;52912;48.564;9.302;2022-12-07T06:29:52;11.43;;;6.28;;
66118;SDS011;52912;48.564;9.302;2022-12-07T06:32:17;11.30;;;6.63;;
66118;SDS011;52912;48.564;9.302;2022-12-07T06:34:43;18.52;;;8.30;;
66118;SDS011;52912;48.564;9.302;2022-12-07T06:37:08;12.63;;;7.10;;
66118;SDS011;52912;48.564;9.302;2022-12-07T06:39:35;14.68;;;7.55;;
66118;SDS011;52912;48.564;9.302;2022-12-07T06:42:00;13.15;;;8.45;;
66118;SDS011;52912;48.564;9.302;2022-12-07T06:44:26;14.73;;;8.48;;
66118;SDS011;52912;48.564;9.302;2022-12-07T06:46:51;12.40;;;7.35;;
66118;SDS011;52912;48.564;9.302;2022-12-07T06:49:17;12.25;;;7.72;;
66118;SDS011;52912;48.564;9.302;2022-12-07T06:51:42;19.25;;;10.38;;
66118;SDS011;52912;48.564;9.302;2022-12-07T06:54:08;19.90;;;10.25;;
66118;SDS011;52912;48.564;9.302;2022-12-07T06:56:36;17.40;;;10.30;;
66118;SDS011;52912;48.564;9.302;2022-12-07T06:59:02;18.48;;;11.43;;
66118;SDS011;52912;48.564;9.302;2022-12-07T07:01:28;16.95;;;10.75;;
66118;SDS011;52912;48.564;9.302;2022-12-07T07:03:53;17.65;;;9.15;;
66118;SDS011;52912;48.564;9.302;2022-12-07T07:06:19;13.30;;;8.38;;
66118;SDS011;52912;48.564;9.302;2022-12-07T07:08:44;14.40;;;8.32;;
66118;SDS011;52912;48.564;9.302;2022-12-07T07:11:10;16.13;;;8.73;;
66118;SDS011;52912;48.564;9.302;2022-12-07T07:13:37;13.23;;;8.10;;
66118;SDS011;52912;48.564;9.302;2022-12-07T07:16:03;13.38;;;8.52;;
66118;SDS011;52912;48.564;9.302;2022-12-07T07:18:28;14.48;;;8.13;;
66118;SDS011;52912;48.564;9.302;2022-12-07T07:20:54;11.60;;;7.32;;
66118;SDS011;52912;48.564;9.302;2022-12-07T07:23:20;12.48;;;8.02;;
66118;SDS011;52912;48.564;9.302;2022-12-07T07:25:46;11.82;;;7.55;;
66118;SDS011;52912;48.564;9.302;2022-12-07T07:28:11;12.07;;;7.57;;
66118;SDS011;52912;48.564;9.302;2022-12-07T07:30:38;13.13;;;7.57;;
66118;SDS011;52912;48.564;9.302;2022-12-07T07:33:04;15.77;;;8.30;;
66118;SDS011;52912;48.564;9.302;2022-12-07T07:35:31;13.85;;;7.97;;
66118;SDS011;52912;48.564;9.302;2022-12-07T07:37:57;15.18;;;8.38;;
66118;SDS011;52912;48.564;9.302;2022-12-07T07:40:24;14.00;;;8.38;;
66118;SDS011;52912;48.564;9.302;2022-12-07T07:42:50;14.80;;;8.13;;
66118;SDS011;52912;48.564;9.302;2022-12-07T07:45:17;12.90;;;8.32;;
66118;SDS011;52912;48.564;9.302;2022-12-07T07:47:43;15.23;;;8.35;;
66118;SDS011;52912;48.564;9.302;2022-12-07T07:50:09;14.30;;;8.48;;
66118;SDS011;52912;48.564;9.302;2022-12-07T07:52:35;17.63;;;7.97;;
66118;SDS011;52912;48.564;9.302;2022-12-07T07:55:00;13.88;;;8.30;;
66118;SDS011;52912;48.564;9.302;2022-12-07T07:57:26;15.52;;;8.32;;
66118;SDS011;52912;48.564;9.302;2022-12-07T07:59:51;15.02;;;8.23;;
66118;SDS011;52912;48.564;9.302;2022-12-07T08:02:18;15.30;;;8.65;;
66118;SDS011;52912;48.564;9.302;2022-12-07T08:04:46;14.88;;;8.45;;
66118;SDS011;52912;48.564;9.302;2022-12-07T08:07:12;14.15;;;8.48;;
66118;SDS011;52912;48.564;9.302;2022-12-07T08:09:38;12.65;;;8.27;;
66118;SDS011;52912;48.564;9.302;2022-12-07T08:12:04;16.95;;;8.65;;
66118;SDS011;52912;48.564;9.302;2022-12-07T08:14:30;14.45;;;8.48;;
66118;SDS011;52912;48.564;9.302;2022-12-07T08:16:56;14.48;;;8.82;;
66118;SDS011;52912;48.564;9.302;2022-12-07T08:19:22;16.00;;;8.80;;
66118;SDS011;52912;48.564;9.302;2022-12-07T08:21:49;16.85;;;9.48;;
66118;SDS011;52912;48.564;9.302;2022-12-07T08:24:15;15.30;;;9.05;;
66118;SDS011;52912;48.564;9.302;2022-12-07T08:26:40;13.85;;;8.90;;
66118;SDS011;52912;48.564;9.302;2022-12-07T08:29:06;14.27;;;9.25;;
66118;SDS011;52912;48.564;9.302;2022-12-07T08:31:32;12.73;;;7.68;;
66118;SDS011;52912;48.564;9.302;2022-12-07T08:33:57;14.52;;;8.32;;
66118;SDS011;52912;48.564;9.302;2022-12-07T08:36:23;13.05;;;8.40;;
66118;SDS011;52912;48.564;9.302;2022-12-07T08:38:50;16.25;;;8.98;;
66118;SDS011;52912;48.564;9.302;2022-12-07T08:41:16;12.90;;;7.93;;
66118;SDS011;52912;48.564;9.302;2022-12-07T08:43:42;15.40;;;8.48;;
66118;SDS011;52912;48.564;9.302;2022-12-07T08:46:09;14.23;;;8.05;;
66118;SDS011;52912;48.564;9.302;2022-12-07T08:48:39;15.55;;;8.93;;
66118;SDS011;52912;48.564;9.302;2022-12-07T08:51:09;12.40;;;7.75;;
66118;SDS011;52912;48.564;9.302;2022-12-07T08:53:35;13.05;;;7.82;;
66118;SDS011;52912;48.564;9.302;2022-12-07T08:56:03;13.65;;;7.65;;
66118;SDS011;52912;48.564;9.302;2022-12-07T08:58:31;15.50;;;8.52;;
66118;SDS011;52912;48.564;9.302;2022-12-07T09:00:57;13.95;;;7.80;;
66118;SDS011;52912;48.564;9.302;2022-12-07T09:03:22;17.80;;;7.60;;
66118;SDS011;52912;48.564;9.302;2022-12-07T09:05:48;12.40;;;7.97;;
66118;SDS011;52912;48.564;9.302;2022-12-07T09:08:14;13.13;;;7.68;;
66118;SDS011;52912;48.564;9.302;2022-12-07T09:10:40;12.43;;;7.22;;
66118;SDS011;52912;48.564;9.302;2022-12-07T09:13:07;12.88;;;7.85;;
66118;SDS011;52912;48.564;9.302;2022-12-07T09:15:32;13.05;;;7.68;;
66118;SDS011;52912;48.564;9.302;2022-12-07T09:17:58;10.77;;;6.60;;
66118;SDS011;52912;48.564;9.302;2022-12-07T09:20:23;11.07;;;6.60;;
66118;SDS011;52912;48.564;9.302;2022-12-07T09:22:49;10.40;;;6.68;;
66118;SDS011;52912;48.564;9.302;2022-12-07T09:25:14;11.07;;;7.30;;
66118;SDS011;52912;48.564;9.302;2022-12-07T09:27:40;33.63;;;16.88;;
66118;SDS011;52912;48.564;9.302;2022-12-07T09:30:08;19.63;;;11.52;;
66118;SDS011;52912;48.564;9.302;2022-12-07T09:32:34;14.38;;;8.70;;
66118;SDS011;52912;48.564;9.302;2022-12-07T09:34:59;13.15;;;6.95;;
66118;SDS011;52912;48.564;9.302;2022-12-07T09:37:25;16.00;;;8.10;;
66118;SDS011;52912;48.564;9.302;2022-12-07T09:39:51;11.27;;;6.93;;
66118;SDS011;52912;48.564;9.302;2022-12-07T09:42:23;13.32;;;7.65;;
66118;SDS011;52912;48.564;9.302;2022-12-07T09:44:52;13.82;;;7.38;;
66118;SDS011;52912;48.564;9.302;2022-12-07T09:47:19;12.85;;;7.20;;
66118;SDS011;52912;48.564;9.302;2022-12-07T09:49:44;12.25;;;6.90;;
66118;SDS011;52912;48.564;9.302;2022-12-07T09:52:17;12.90;;;7.40;;
66118;SDS011;52912;48.564;9.302;2022-12-07T09:54:45;11.15;;;6.45;;
66118;SDS011;52912;48.564;9.302;2022-12-07T09:57:13;11.00;;;6.57;;
66118;SDS011;52912;48.564;9.302;2022-12-07T09:59:39;12.38;;;7.00;;
66118;SDS011;52912;48.564;9.302;2022-12-07T10:02:21;11.13;;;7.03;;
66118;SDS011;52912;48.564;9.302;2022-12-07T10:04:51;9.55;;;5.82;;
66118;SDS011;52912;48.564;9.302;2022-12-07T10:07:16;9.45;;;5.40;;
66118;SDS011;52912;48.564;9.302;2022-12-07T10:09:42;8.60;;;5.50;;
66118;SDS011;52912;48.564;9.302;2022-12-07T10:12:08;12.70;;;5.88;;
66118;SDS011;52912;48.564;9.302;2022-12-07T10:14:35;8.15;;;5.03;;
66118;SDS011;52912;48.564;9.302;2022-12-07T10:17:02;8.85;;;4.78;;
66118;SDS011;52912;48.564;9.302;2022-12-07T10:19:29;9.90;;;5.95;;
66118;SDS011;52912;48.564;9.302;2022-12-07T10:22:00;8.73;;;4.82;;
66118;SDS011;52912;48.564;9.302;2022-12-07T10:24:33;8.70;;;5.10;;
66118;SDS011;52912;48.564;9.302;2022-12-07T10:26:59;7.37;;;4.47;;
66118;SDS011;52912;48.564;9.302;2022-12-07T10:29:27;7.72;;;5.10;;
66118;SDS011;52912;48.564;9.302;2022-12-07T10:31:56;8.65;;;4.72;;
66118;SDS011;52912;48.564;9.302;2022-12-07T10:34:23;7.40;;;4.22;;
66118;SDS011;52912;48.564;9.302;2022-12-07T10:36:51;8.48;;;5.45;;
66118;SDS011;52912;48.564;9.302;2022-12-07T10:39:19;8.05;;;4.85;;
66118;SDS011;52912;48.564;9.302;2022-12-07T10:41:55;8.05;;;4.90;;
66118;SDS011;52912;48.564;9.302;2022-12-07T10:44:22;8.15;;;4.90;;
66118;SDS011;52912;48.564;9.302;2022-12-07T10:47:00;7.97;;;5.05;;
66118;SDS011;52912;48.564;9.302;2022-12-07T10:52:34;9.27;;;4.55;;
66118;SDS011;52912;48.564;9.302;2022-12-07T10:55:13;5.60;;;4.05;;
66118;SDS011;52912;48.564;9.302;2022-12-07T10:57:47;7.22;;;4.35;;
66118;SDS011;52912;48.564;9.302;2022-12-07T11:00:25;8.82;;;3.95;;
66118;SDS011;52912;48.564;9.302;2022-12-07T11:03:05;9.40;;;4.78;;
66118;SDS011;52912;48.564;9.302;2022-12-07T11:05:45;7.07;;;4.78;;
66118;SDS011;52912;48.564;9.302;2022-12-07T11:08:21;10.60;;;4.97;;
66118;SDS011;52912;48.564;9.302;2022-12-07T11:11:02;8.18;;;4.72;;
66118;SDS011;52912;48.564;9.302;2022-12-07T11:13:36;8.82;;;5.28;;
66118;SDS011;52912;48.564;9.302;2022-12-07T11:16:19;8.63;;;5.20;;
66118;SDS011;52912;48.564;9.302;2022-12-07T11:19:00;9.05;;;5.28;;
66118;SDS011;52912;48.564;9.302;2022-12-07T11:21:37;9.75;;;4.88;;
66118;SDS011;52912;48.564;9.302;2022-12-07T11:24:12;8.63;;;5.05;;
66118;SDS011;52912;48.564;9.302;2022-12-07T11:26:44;13.45;;;5.55;;
66118;SDS011;52912;48.564;9.302;2022-12-07T11:29:24;11.27;;;6.88;;
66118;SDS011;52912;48.564;9.302;2022-12-07T11:32:04;21.60;;;8.18;;
66118;SDS011;52912;48.564;9.302;2022-12-07T11:34:42;10.82;;;5.65;;
66118;SDS011;52912;48.564;9.302;2022-12-07T11:37:16;18.63;;;7.10;;
66118;SDS011;52912;48.564;9.302;2022-12-07T11:39:46;7.80;;;5.17;;
66118;SDS011;52912;48.564;9.302;2022-12-07T11:42:16;7.30;;;4.78;;
66118;SDS011;52912;48.564;9.302;2022-12-07T11:44:48;9.35;;;5.90;;
66118;SDS011;52912;48.564;9.302;2022-12-07T11:47:19;9.88;;;4.53;;
66118;SDS011;52912;48.564;9.302;2022-12-07T11:49:52;8.15;;;5.93;;
66118;SDS011;52912;48.564;9.302;2022-12-07T11:52:21;12.10;;;6.88;;
66118;SDS011;52912;48.564;9.302;2022-12-07T11:54:52;8.07;;;5.75;;
66118;SDS011;52912;48.564;9.302;2022-12-07T11:57:20;7.90;;;5.15;;
66118;SDS011;52912;48.564;9.302;2022-12-07T11:59:53;8.68;;;5.53;;
66118;SDS011;52912;48.564;9.302;2022-12-07T12:02:26;9.82;;;5.60;;
66118;SDS011;52912;48.564;9.302;2022-12-07T12:04:58;7.75;;;4.88;;
66118;SDS011;52912;48.564;9.302;2022-12-07T12:07:31;8.35;;;4.88;;
66118;SDS011;52912;48.564;9.302;2022-12-07T12:09:59;24.23;;;9.57;;
66118;SDS011;52912;48.564;9.302;2022-12-07T12:12:36;14.75;;;6.30;;
66118;SDS011;52912;48.564;9.302;2022-12-07T12:15:22;19.08;;;8.25;;
66118;SDS011;52912;48.564;9.302;2022-12-07T12:18:02;10.95;;;5.05;;
66118;SDS011;52912;48.564;9.302;2022-12-07T12:20:38;16.23;;;7.40;;
66118;SDS011;52912;48.564;9.302;2022-12-07T12:23:10;9.85;;;5.90;;
66118;SDS011;52912;48.564;9.302;2022-12-07T12:25:41;12.15;;;6.38;;
66118;SDS011;52912;48.564;9.302;2022-12-07T12:28:19;8.05;;;5.07;;
66118;SDS011;52912;48.564;9.302;2022-12-07T12:33:46;19.95;;;7.40;;
66118;SDS011;52912;48.564;9.302;2022-12-07T12:36:20;16.80;;;6.90;;
66118;SDS011;52912;48.564;9.302;2022-12-07T12:38:50;12.05;;;4.80;;
66118;SDS011;52912;48.564;9.302;2022-12-07T12:47:41;9.05;;;3.95;;
66118;SDS011;52912;48.564;9.302;2022-12-07T12:50:17;7.55;;;4.18;;
66118;SDS011;52912;48.564;9.302;2022-12-07T12:58:46;19.52;;;6.57;;
66118;SDS011;52912;48.564;9.302;2022-12-07T13:04:21;15.52;;;5.65;;
66118;SDS011;52912;48.564;9.302;2022-12-07T13:06:50;8.23;;;4.95;;
66118;SDS011;52912;48.564;9.302;2022-12-07T13:09:18;6.68;;;4.22;;
66118;SDS011;52912;48.564;9.302;2022-12-07T13:11:48;7.32;;;4.45;;
66118;SDS011;52912;48.564;9.302;2022-12-07T13:14:40;9.90;;;4.57;;
66118;SDS011;52912;48.564;9.302;2022-12-07T13:20:45;10.20;;;5.25;;
66118;SDS011;52912;48.564;9.302;2022-12-07T13:23:13;7.28;;;4.40;;
66118;SDS011;52912;48.564;9.302;2022-12-07T13:25:45;10.05;;;5.40;;
66118;SDS011;52912;48.564;9.302;2022-12-07T13:28:15;11.05;;;4.85;;
66118;SDS011;52912;48.564;9.302;2022-12-07T13:30:45;8.15;;;5.45;;
66118;SDS011;52912;48.564;9.302;2022-12-07T13:33:15;7.35;;;4.30;;
66118;SDS011;52912;48.564;9.302;2022-12-07T13:35:42;8.05;;;4.40;;
66118;SDS011;52912;48.564;9.302;2022-12-07T13:38:16;8.15;;;4.70;;
66118;SDS011;52912;48.564;9.302;2022-12-07T13:40:59;7.35;;;4.63;;
66118;SDS011;52912;48.564;9.302;2022-12-07T13:43:25;7.57;;;4.43;;
66118;SDS011;52912;48.564;9.302;2022-12-07T13:45:56;5.97;;;4.38;;
66118;SDS011;52912;48.564;9.302;2022-12-07T13:48:24;7.85;;;4.45;;
66118;SDS011;52912;48.564;9.302;2022-12-07T13:50:55;8.55;;;5.13;;
66118;SDS011;52912;48.564;9.302;2022-12-07T13:53:22;9.30;;;4.65;;
66118;SDS011;52912;48.564;9.302;2022-12-07T13:55:48;8.63;;;4.95;;
66118;SDS011;52912;48.564;9.302;2022-12-07T14:00:42;11.00;;;4.77;;
66118;SDS011;52912;48.564;9.302;2022-12-07T14:03:22;10.80;;;4.68;;
66118;SDS011;52912;48.564;9.302;2022-12-07T14:06:03;10.35;;;4.63;;
66118;SDS011;52912;48.564;9.302;2022-12-07T14:08:30;7.40;;;4.55;;
66118;SDS011;52912;48.564;9.302;2022-12-07T14:10:56;8.98;;;4.93;;
66118;SDS011;52912;48.564;9.302;2022-12-07T14:13:26;8.88;;;4.13;;
66118;SDS011;52912;48.564;9.302;2022-12-07T14:15:55;7.75;;;4.60;;
66118;SDS011;52912;48.564;9.302;2022-12-07T14:18:26;10.00;;;5.25;;
66118;SDS011;52912;48.564;9.302;2022-12-07T14:21:01;11.90;;;5.00;;
66118;SDS011;52912;48.564;9.302;2022-12-07T14:23:28;9.25;;;4.60;;
66118;SDS011;52912;48.564;9.302;2022-12-07T14:25:53;9.55;;;4.97;;
66118;SDS011;52912;48.564;9.302;2022-12-07T14:28:26;7.70;;;4.15;;
66118;SDS011;52912;48.564;9.302;2022-12-07T14:30:53;9.55;;;4.30;;
66118;SDS011;52912;48.564;9.302;2022-12-07T14:33:18;6.13;;;4.00;;
66118;SDS011;52912;48.564;9.302;2022-12-07T14:35:46;8.63;;;4.53;;
66118;SDS011;52912;48.564;9.302;2022-12-07T14:38:12;10.27;;;4.90;;
66118;SDS011;52912;48.564;9.302;2022-12-07T14:40:37;6.38;;;4.32;;
66118;SDS011;52912;48.564;9.302;2022-12-07T14:43:04;7.72;;;4.70;;
66118;SDS011;52912;48.564;9.302;2022-12-07T14:45:33;8.35;;;4.57;;
66118;SDS011;52912;48.564;9.302;2022-12-07T14:47:59;8.57;;;4.70;;
66118;SDS011;52912;48.564;9.302;2022-12-07T14:50:27;10.98;;;6.38;;
66118;SDS011;52912;48.564;9.302;2022-12-07T14:52:55;10.60;;;5.60;;
66118;SDS011;52912;48.564;9.302;2022-12-07T14:55:24;9.50;;;5.20;;
66118;SDS011;52912;48.564;9.302;2022-12-07T14:57:52;8.70;;;4.80;;
66118;SDS011;52912;48.564;9.302;2022-12-07T15:00:18;11.35;;;6.00;;
66118;SDS011;52912;48.564;9.302;2022-12-07T15:02:45;14.35;;;5.43;;
66118;SDS011;52912;48.564;9.302;2022-12-07T15:05:11;7.65;;;5.15;;
66118;SDS011;52912;48.564;9.302;2022-12-07T15:07:37;8.13;;;4.78;;
66118;SDS011;52912;48.564;9.302;2022-12-07T15:10:05;9.68;;;5.70;;
66118;SDS011;52912;48.564;9.302;2022-12-07T15:12:31;12.10;;;5.20;;